createdAt,value
2018-07-01T00:00:20.720Z,30.90
2018-07-01T00:02:49.135Z,31.10
2018-07-01T00:05:17.503Z,31.20
2018-07-01T00:07:46.875Z,31.40
2018-07-01T00:10:15.283Z,31.40
2018-07-01T00:12:43.681Z,31.20
2018-07-01T00:15:12.240Z,31.50
2018-07-01T00:17:40.599Z,31.30
2018-07-01T00:20:09.967Z,31.30
2018-07-01T00:22:38.876Z,31.10
2018-07-01T00:25:07.733Z,30.70
2018-07-01T00:27:36.168Z,31.00
2018-07-01T00:30:05.527Z,31.00
2018-07-01T00:32:33.957Z,31.20
2018-07-01T00:35:02.408Z,31.10
2018-07-01T00:37:30.796Z,31.30
2018-07-01T00:39:59.209Z,31.10
2018-07-01T00:42:27.657Z,31.40
2018-07-01T00:44:56.020Z,31.00
2018-07-01T00:47:24.511Z,30.80
2018-07-01T00:49:52.986Z,31.00
2018-07-01T00:52:21.333Z,30.70
2018-07-01T00:54:49.685Z,31.10
2018-07-01T00:59:46.325Z,31.10
2018-07-01T01:02:14.836Z,30.90
2018-07-01T01:04:43.279Z,31.60
2018-07-01T01:07:11.589Z,31.20
2018-07-01T01:09:39.936Z,30.60
2018-07-01T01:12:08.308Z,31.00
2018-07-01T01:14:36.689Z,30.80
2018-07-01T01:17:05.142Z,31.10
2018-07-01T01:19:33.665Z,31.10
2018-07-01T01:22:02.020Z,31.10
2018-07-01T01:24:30.369Z,30.50
2018-07-01T01:26:58.813Z,31.20
2018-07-01T01:29:27.197Z,30.90
2018-07-01T01:31:55.549Z,30.80
2018-07-01T01:34:24.088Z,30.70
2018-07-01T01:36:52.538Z,30.70
2018-07-01T01:39:23.917Z,30.50
2018-07-01T01:41:56.482Z,31.00
2018-07-01T01:44:34.518Z,30.90
2018-07-01T01:47:07.080Z,30.90
2018-07-01T01:49:45.779Z,30.50
2018-07-01T01:52:21.271Z,30.90
2018-07-01T01:54:55.962Z,30.70
2018-07-01T01:57:31.624Z,31.10
2018-07-01T02:00:05.426Z,31.10
2018-07-01T02:02:40.389Z,31.30
2018-07-01T02:05:16.610Z,30.50
2018-07-01T02:07:56.869Z,30.60
2018-07-01T02:10:25.339Z,30.50
2018-07-01T02:12:53.858Z,31.20
2018-07-01T02:15:30.000Z,31.00
2018-07-01T02:17:58.437Z,30.50
2018-07-01T02:20:29.593Z,30.90
2018-07-01T02:23:04.257Z,30.60
2018-07-01T02:25:34.002Z,31.10
2018-07-01T02:28:02.446Z,31.00
2018-07-01T02:30:31.002Z,31.10
2018-07-01T02:32:59.381Z,31.10
2018-07-01T02:35:27.824Z,31.10
2018-07-01T02:37:56.302Z,31.10
2018-07-01T02:40:24.655Z,30.50
2018-07-01T02:42:53.036Z,31.20
2018-07-01T02:45:21.449Z,31.10
2018-07-01T02:47:49.860Z,31.20
2018-07-01T02:50:18.206Z,31.70
2018-07-01T02:52:46.560Z,31.30
2018-07-01T02:55:15.058Z,31.60
2018-07-01T02:57:43.414Z,31.20
2018-07-01T03:00:11.764Z,30.60
2018-07-01T03:02:40.176Z,31.00
2018-07-01T03:05:08.570Z,31.20
2018-07-01T03:07:36.998Z,31.30
2018-07-01T03:10:05.560Z,31.30
2018-07-01T03:15:02.034Z,31.30
2018-07-01T03:17:30.496Z,31.30
2018-07-01T03:19:58.878Z,31.30
2018-07-01T03:22:27.275Z,31.20
2018-07-01T03:24:55.617Z,31.20
2018-07-01T03:27:23.987Z,31.40
2018-07-01T03:29:52.343Z,31.30
2018-07-01T03:32:20.748Z,31.40
2018-07-01T03:34:49.144Z,31.40
2018-07-01T03:37:17.513Z,31.60
2018-07-01T03:39:45.947Z,31.60
2018-07-01T03:42:14.269Z,31.50
2018-07-01T03:44:42.612Z,31.90
2018-07-01T03:47:11.063Z,31.40
2018-07-01T03:49:39.480Z,31.70
2018-07-01T03:52:07.876Z,31.40
2018-07-01T03:54:36.301Z,31.60
2018-07-01T03:57:04.944Z,31.80
2018-07-01T03:59:33.330Z,31.60
2018-07-01T04:02:01.784Z,31.40
2018-07-01T04:04:30.268Z,31.90
2018-07-01T04:06:58.610Z,31.90
2018-07-01T04:09:29.988Z,31.90
2018-07-01T04:11:58.350Z,31.90
2018-07-01T04:14:26.752Z,31.90
2018-07-01T04:16:55.458Z,32.20
2018-07-01T04:19:38.825Z,32.10
2018-07-01T04:22:08.593Z,32.00
2018-07-01T04:24:37.472Z,31.90
2018-07-01T04:27:05.890Z,32.20
2018-07-01T04:29:34.824Z,32.10
2018-07-01T04:32:03.307Z,32.10
2018-07-01T04:34:31.684Z,32.30
2018-07-01T04:37:00.380Z,32.20
2018-07-01T04:39:28.705Z,32.20
2018-07-01T04:41:57.124Z,32.10
2018-07-01T04:44:25.529Z,32.20
2018-07-01T04:46:53.890Z,32.30
2018-07-01T04:49:22.312Z,32.20
2018-07-01T04:51:50.725Z,32.10
2018-07-01T04:54:19.110Z,32.30
2018-07-01T04:56:47.642Z,32.20
2018-07-01T04:59:16.066Z,32.20
2018-07-01T05:01:44.476Z,32.30
2018-07-01T05:04:12.960Z,32.30
2018-07-01T05:06:41.284Z,32.30
2018-07-01T05:09:11.766Z,32.30
2018-07-01T05:11:40.747Z,32.20
2018-07-01T05:14:09.272Z,32.10
2018-07-01T05:16:38.374Z,32.10
2018-07-01T05:19:07.094Z,32.00
2018-07-01T05:21:35.472Z,32.00
2018-07-01T05:24:04.112Z,31.80
2018-07-01T05:26:32.510Z,32.00
2018-07-01T05:29:00.896Z,32.10
2018-07-01T05:31:29.399Z,31.80
2018-07-01T05:33:57.910Z,32.10
2018-07-01T05:36:26.611Z,31.90
2018-07-01T05:38:55.060Z,31.90
2018-07-01T05:41:23.432Z,32.80
2018-07-01T05:43:51.848Z,32.00
2018-07-01T05:46:20.328Z,32.00
2018-07-01T05:48:48.716Z,32.10
2018-07-01T05:51:17.083Z,32.00
2018-07-01T05:53:45.432Z,31.90
2018-07-01T05:56:13.854Z,32.00
2018-07-01T05:58:42.244Z,32.10
2018-07-01T06:01:10.636Z,32.00
2018-07-01T06:03:38.984Z,31.90
2018-07-01T06:06:07.447Z,31.90
2018-07-01T06:08:35.884Z,31.60
2018-07-01T06:11:04.268Z,31.90
2018-07-01T06:13:32.716Z,31.90
2018-07-01T06:16:01.116Z,31.90
2018-07-01T06:18:29.546Z,31.80
2018-07-01T06:20:57.947Z,31.80
2018-07-01T06:23:26.408Z,31.90
2018-07-01T06:25:54.839Z,31.80
2018-07-01T06:28:23.212Z,31.90
2018-07-01T06:30:51.632Z,31.80
2018-07-01T06:33:20.075Z,31.90
2018-07-01T06:35:48.524Z,32.00
2018-07-01T06:38:17.065Z,31.90
2018-07-01T06:40:45.424Z,32.00
2018-07-01T06:43:13.803Z,31.80
2018-07-01T06:45:43.049Z,32.00
2018-07-01T06:48:11.466Z,31.90
2018-07-01T06:50:39.970Z,31.80
2018-07-01T06:53:08.405Z,31.80
2018-07-01T06:55:36.794Z,32.60
2018-07-01T06:58:05.287Z,32.50
2018-07-01T07:00:33.709Z,31.80
2018-07-01T07:03:02.943Z,31.70
2018-07-01T07:05:31.433Z,31.70
2018-07-01T07:07:59.989Z,31.70
2018-07-01T07:10:28.516Z,31.80
2018-07-01T07:12:56.913Z,31.70
2018-07-01T07:15:25.349Z,31.70
2018-07-01T07:17:53.685Z,31.60
2018-07-01T07:20:22.040Z,31.50
2018-07-01T07:22:50.439Z,31.40
2018-07-01T07:25:18.969Z,31.70
2018-07-01T07:27:47.444Z,31.80
2018-07-01T07:30:15.886Z,31.80
2018-07-01T07:32:44.286Z,31.80
2018-07-01T07:35:12.716Z,31.80
2018-07-01T07:37:41.267Z,31.80
2018-07-01T07:40:09.679Z,31.70
2018-07-01T07:42:38.365Z,32.50
2018-07-01T07:45:06.785Z,31.90
2018-07-01T07:47:35.126Z,31.80
2018-07-01T07:50:03.577Z,31.80
2018-07-01T07:52:31.928Z,31.90
2018-07-01T07:55:00.296Z,32.00
2018-07-01T07:57:28.812Z,31.90
2018-07-01T07:59:57.284Z,32.00
2018-07-01T08:02:25.646Z,32.00
2018-07-01T08:04:54.090Z,32.00
2018-07-01T08:07:22.484Z,31.90
2018-07-01T08:09:50.874Z,31.90
2018-07-01T08:12:19.272Z,31.90
2018-07-01T08:17:15.766Z,31.60
2018-07-01T08:19:44.301Z,31.60
2018-07-01T08:22:12.706Z,31.70
2018-07-01T08:27:09.348Z,31.30
2018-07-01T08:29:37.852Z,31.40
2018-07-01T08:32:06.470Z,31.50
2018-07-01T08:34:34.984Z,31.60
2018-07-01T08:37:03.450Z,31.60
2018-07-01T08:39:32.062Z,32.20
2018-07-01T08:42:34.426Z,31.30
2018-07-01T08:45:03.959Z,31.30
2018-07-01T08:47:33.138Z,31.30
2018-07-01T08:50:01.508Z,30.90
2018-07-01T08:52:29.922Z,31.20
2018-07-01T08:54:58.352Z,30.70
2018-07-01T08:57:26.711Z,30.70
2018-07-01T08:59:55.355Z,30.80
2018-07-01T09:02:24.021Z,31.10
2018-07-01T09:04:52.467Z,31.00
2018-07-01T09:07:21.152Z,30.90
2018-07-01T09:09:50.171Z,31.10
2018-07-01T09:12:18.512Z,31.00
2018-07-01T09:14:46.891Z,30.70
2018-07-01T09:17:15.359Z,30.70
2018-07-01T09:19:43.797Z,30.60
2018-07-01T09:24:31.287Z,30.70
2018-07-01T09:26:59.788Z,30.70
2018-07-01T09:29:28.194Z,30.60
2018-07-01T09:31:57.117Z,30.70
2018-07-01T09:34:26.823Z,30.70
2018-07-01T09:36:55.581Z,30.60
2018-07-01T09:39:24.256Z,30.70
2018-07-01T09:41:53.908Z,30.70
2018-07-01T09:46:50.474Z,30.80
2018-07-01T09:49:19.172Z,30.70
2018-07-01T09:51:47.707Z,30.70
2018-07-01T09:54:16.203Z,30.80
2018-07-01T09:56:44.652Z,30.70
2018-07-01T09:59:13.159Z,30.60
2018-07-01T10:01:41.602Z,30.70
2018-07-01T10:04:10.020Z,31.70
2018-07-01T10:06:38.506Z,30.90
2018-07-01T10:09:09.373Z,31.40
2018-07-01T10:11:38.057Z,30.80
2018-07-01T10:14:07.677Z,30.70
2018-07-01T10:16:36.137Z,30.70
2018-07-01T10:19:04.822Z,30.70
2018-07-01T10:21:33.250Z,30.70
2018-07-01T10:24:01.765Z,30.70
2018-07-01T10:26:30.253Z,30.70
2018-07-01T10:29:18.028Z,30.70
2018-07-01T10:31:46.773Z,30.60
2018-07-01T10:34:15.913Z,30.70
2018-07-01T10:36:44.298Z,30.70
2018-07-01T10:39:15.298Z,30.70
2018-07-01T10:41:43.730Z,30.70
2018-07-01T10:44:12.176Z,30.70
2018-07-01T10:46:40.560Z,30.60
2018-07-01T10:49:08.953Z,31.30
2018-07-01T10:51:37.471Z,30.60
2018-07-01T10:54:06.017Z,30.70
2018-07-01T10:56:34.461Z,30.70
2018-07-01T10:59:02.877Z,30.60
2018-07-01T11:01:31.279Z,30.60
2018-07-01T11:03:59.791Z,30.70
2018-07-01T11:06:28.211Z,30.70
2018-07-01T11:08:56.625Z,30.70
2018-07-01T11:11:24.997Z,30.70
2018-07-01T11:13:53.654Z,30.70
2018-07-01T11:16:22.047Z,30.60
2018-07-01T11:18:50.457Z,30.70
2018-07-01T11:21:19.000Z,30.60
2018-07-01T11:23:47.407Z,30.70
2018-07-01T11:26:15.857Z,30.70
2018-07-01T11:28:44.231Z,30.70
2018-07-01T11:31:12.625Z,30.70
2018-07-01T11:33:41.103Z,30.70
2018-07-01T11:36:09.545Z,30.70
2018-07-01T11:38:37.977Z,30.60
2018-07-01T11:41:06.322Z,30.70
2018-07-01T11:43:34.767Z,30.60
2018-07-01T11:46:03.234Z,30.70
2018-07-01T11:48:31.707Z,30.70
2018-07-01T11:51:00.144Z,30.60
2018-07-01T11:53:28.572Z,30.70
2018-07-01T11:55:57.010Z,30.70
2018-07-01T11:58:25.418Z,30.70
2018-07-01T12:00:53.850Z,30.70
2018-07-01T12:03:22.224Z,30.70
2018-07-01T12:05:50.749Z,30.70
2018-07-01T12:08:19.143Z,30.70
2018-07-01T12:10:47.526Z,30.70
2018-07-01T12:13:15.954Z,30.70
2018-07-01T12:15:44.509Z,30.70
2018-07-01T12:18:12.900Z,30.60
2018-07-01T12:20:41.369Z,30.70
2018-07-01T12:23:09.762Z,30.70
2018-07-01T12:25:38.122Z,30.70
2018-07-01T12:30:34.666Z,30.70
2018-07-01T12:33:03.131Z,31.30
2018-07-01T12:35:31.556Z,30.70
2018-07-01T12:37:59.995Z,30.60
2018-07-01T12:40:28.611Z,30.60
2018-07-01T12:42:57.027Z,30.60
2018-07-01T12:45:25.395Z,30.70
2018-07-01T12:47:53.777Z,30.60
2018-07-01T12:50:22.135Z,30.70
2018-07-01T12:52:50.753Z,30.60
2018-07-01T12:55:19.116Z,30.70
2018-07-01T12:57:47.601Z,30.60
2018-07-01T13:00:18.577Z,30.70
2018-07-01T13:02:46.957Z,30.60
2018-07-01T13:05:15.309Z,30.60
2018-07-01T13:07:43.723Z,30.70
2018-07-01T13:10:12.125Z,30.70
2018-07-01T13:12:40.581Z,30.60
2018-07-01T13:15:08.993Z,30.70
2018-07-01T13:17:37.343Z,30.70
2018-07-01T13:20:05.851Z,30.70
2018-07-01T13:22:34.261Z,30.60
2018-07-01T13:25:02.648Z,30.70
2018-07-01T13:27:31.095Z,30.70
2018-07-01T13:30:00.289Z,30.60
2018-07-01T13:32:28.866Z,30.60
2018-07-01T13:39:53.715Z,30.60
2018-07-01T13:42:22.121Z,30.70
2018-07-01T13:44:50.572Z,30.70
2018-07-01T13:47:19.140Z,30.60
2018-07-01T13:49:47.600Z,30.70
2018-07-01T13:52:16.024Z,30.70
2018-07-01T13:54:44.418Z,30.60
2018-07-01T13:57:12.960Z,30.60
2018-07-01T13:59:41.343Z,30.60
2018-07-01T14:02:09.736Z,30.60
2018-07-01T14:04:38.196Z,30.70
2018-07-01T14:07:06.663Z,30.70
2018-07-01T14:09:35.068Z,30.70
2018-07-01T14:12:03.543Z,30.30
2018-07-01T14:14:31.914Z,30.70
2018-07-01T14:17:00.253Z,30.60
2018-07-01T14:19:28.641Z,30.70
2018-07-01T14:21:57.069Z,30.60
2018-07-01T14:24:25.457Z,30.60
2018-07-01T14:26:53.896Z,30.60
2018-07-01T14:29:22.393Z,30.60
2018-07-01T14:31:50.742Z,30.60
2018-07-01T14:34:19.117Z,30.70
2018-07-01T14:36:47.603Z,30.60
2018-07-01T14:39:16.020Z,30.60
2018-07-01T14:41:44.665Z,30.60
2018-07-01T14:44:13.042Z,30.70
2018-07-01T14:46:41.420Z,30.60
2018-07-01T14:49:09.975Z,30.60
2018-07-01T14:54:06.364Z,30.70
2018-07-01T14:56:34.768Z,30.60
2018-07-01T14:59:03.154Z,30.70
2018-07-01T15:01:32.334Z,30.70
2018-07-01T15:04:01.212Z,30.60
2018-07-01T15:06:29.638Z,30.70
2018-07-01T15:08:58.025Z,30.10
2018-07-01T15:11:26.440Z,30.60
2018-07-01T15:13:54.904Z,30.60
2018-07-01T15:16:23.361Z,30.60
2018-07-01T15:18:51.774Z,30.60
2018-07-01T15:21:20.185Z,30.70
2018-07-01T15:23:48.566Z,30.60
2018-07-01T15:26:17.342Z,30.70
2018-07-01T15:28:45.836Z,30.70
2018-07-01T15:31:14.428Z,30.70
2018-07-01T15:33:42.855Z,30.70
2018-07-01T15:36:11.274Z,30.60
2018-07-01T15:38:39.803Z,30.60
2018-07-01T15:41:08.341Z,30.70
2018-07-01T15:43:36.891Z,30.60
2018-07-01T15:46:05.704Z,30.70
2018-07-01T15:48:34.441Z,30.60
2018-07-01T15:51:02.790Z,30.70
2018-07-01T15:53:31.166Z,30.70
2018-07-01T15:55:59.596Z,30.60
2018-07-01T15:58:27.944Z,30.60
2018-07-01T16:00:56.369Z,30.60
2018-07-01T16:03:24.778Z,30.60
2018-07-01T16:05:53.231Z,30.70
2018-07-01T16:08:21.651Z,30.70
2018-07-01T16:10:50.082Z,30.60
2018-07-01T16:13:18.498Z,31.30
2018-07-01T16:15:46.873Z,30.60
2018-07-01T16:18:15.321Z,30.70
2018-07-01T16:20:43.703Z,30.70
2018-07-01T16:23:12.090Z,30.70
2018-07-01T16:25:45.966Z,30.70
2018-07-01T16:28:19.618Z,30.70
2018-07-01T16:33:16.060Z,30.70
2018-07-01T16:35:44.417Z,30.70
2018-07-01T16:38:12.778Z,30.70
2018-07-01T16:40:41.332Z,30.60
2018-07-01T16:43:09.761Z,30.70
2018-07-01T16:45:38.139Z,30.70
2018-07-01T16:48:06.526Z,30.70
2018-07-01T16:50:34.960Z,30.70
2018-07-01T16:53:03.352Z,30.70
2018-07-01T16:55:32.045Z,30.70
2018-07-01T16:58:00.410Z,30.70
2018-07-01T17:00:28.862Z,30.70
2018-07-01T17:02:57.262Z,30.60
2018-07-01T17:05:25.784Z,30.70
2018-07-01T17:07:54.021Z,30.70
2018-07-01T17:10:22.469Z,30.70
2018-07-01T17:12:50.807Z,30.70
2018-07-01T17:15:19.282Z,30.70
2018-07-01T17:17:47.724Z,30.70
2018-07-01T17:20:16.132Z,30.70
2018-07-01T17:22:44.535Z,30.70
2018-07-01T17:25:12.943Z,30.70
2018-07-01T17:27:41.364Z,30.70
2018-07-01T17:30:09.771Z,30.70
2018-07-01T17:32:43.597Z,30.70
2018-07-01T17:35:11.987Z,30.70
2018-07-01T17:40:08.692Z,30.70
2018-07-01T17:42:37.171Z,30.70
2018-07-01T17:45:05.543Z,30.70
2018-07-01T17:47:34.045Z,30.60
2018-07-01T17:50:02.428Z,30.70
2018-07-01T17:52:30.799Z,30.70
2018-07-01T17:54:59.262Z,30.70
2018-07-01T17:57:27.723Z,30.70
2018-07-01T17:59:56.113Z,30.70
2018-07-01T18:02:24.474Z,30.70
2018-07-01T18:04:52.879Z,30.60
2018-07-01T18:07:21.209Z,30.70
2018-07-01T18:09:49.598Z,30.70
2018-07-01T18:12:18.018Z,30.70
2018-07-01T18:14:46.525Z,30.70
2018-07-01T18:17:15.053Z,30.70
2018-07-01T18:19:43.491Z,30.70
2018-07-01T18:22:14.826Z,30.70
2018-07-01T18:24:53.947Z,30.70
2018-07-01T18:27:10.588Z,30.70
2018-07-01T18:29:39.037Z,30.70
2018-07-01T18:32:07.558Z,30.70
2018-07-01T18:37:04.030Z,30.70
2018-07-01T18:39:32.807Z,30.70
2018-07-01T18:42:01.274Z,30.70
2018-07-01T18:44:29.674Z,30.70
2018-07-01T18:46:58.046Z,30.70
2018-07-01T18:51:54.569Z,30.70
2018-07-01T18:54:22.959Z,30.80
2018-07-01T18:56:51.424Z,30.70
2018-07-01T18:59:19.866Z,30.70
2018-07-01T19:01:48.291Z,30.70
2018-07-01T19:04:16.706Z,30.70
2018-07-01T19:06:45.153Z,30.70
2018-07-01T19:09:13.600Z,30.60
2018-07-01T19:11:42.042Z,30.70
2018-07-01T19:14:11.457Z,30.60
2018-07-01T19:16:39.811Z,30.70
2018-07-01T19:19:08.278Z,30.60
2018-07-01T19:21:36.635Z,30.70
2018-07-01T19:24:05.164Z,30.70
2018-07-01T19:26:33.717Z,30.70
2018-07-01T19:29:02.219Z,30.60
2018-07-01T19:31:30.929Z,30.60
2018-07-01T19:33:59.349Z,30.70
2018-07-01T19:36:27.900Z,30.60
2018-07-01T19:38:56.303Z,30.60
2018-07-01T19:41:24.821Z,30.60
2018-07-01T19:43:53.251Z,30.70
2018-07-01T19:46:21.709Z,30.60
2018-07-01T19:48:50.211Z,30.70
2018-07-01T19:51:18.681Z,30.60
2018-07-01T19:53:47.168Z,30.60
2018-07-01T19:56:15.543Z,30.60
2018-07-01T19:58:43.898Z,30.60
2018-07-01T20:01:12.319Z,30.60
2018-07-01T20:03:40.699Z,30.70
2018-07-01T20:06:09.200Z,30.60
2018-07-01T20:08:37.537Z,30.60
2018-07-01T20:11:05.955Z,30.60
2018-07-01T20:13:34.363Z,30.60
2018-07-01T20:16:02.887Z,30.60
2018-07-01T20:18:31.434Z,30.70
2018-07-01T20:20:59.790Z,30.60
2018-07-01T20:23:28.228Z,30.70
2018-07-01T20:25:56.835Z,30.60
2018-07-01T20:28:25.239Z,30.60
2018-07-01T20:30:53.637Z,30.60
2018-07-01T20:33:22.037Z,30.60
2018-07-01T20:35:50.424Z,30.70
2018-07-01T20:38:18.976Z,30.60
2018-07-01T20:40:47.375Z,30.60
2018-07-01T20:43:15.737Z,30.70
2018-07-01T20:45:44.161Z,30.60
2018-07-01T20:48:12.528Z,30.70
2018-07-01T20:50:40.992Z,30.60
2018-07-01T20:53:09.414Z,30.60
2018-07-01T20:55:37.810Z,30.60
2018-07-01T20:58:06.251Z,30.60
2018-07-01T21:00:34.646Z,30.60
2018-07-01T21:03:03.043Z,30.60
2018-07-01T21:05:31.588Z,30.50
2018-07-01T21:07:59.900Z,30.50
2018-07-01T21:10:28.281Z,30.50
2018-07-01T21:12:56.686Z,30.50
2018-07-01T21:15:25.049Z,30.50
2018-07-01T21:17:53.627Z,30.60
2018-07-01T21:20:22.008Z,30.60
2018-07-01T21:22:50.623Z,30.50
2018-07-01T21:25:19.015Z,30.50
2018-07-01T21:27:47.368Z,30.50
2018-07-01T21:30:15.745Z,30.50
2018-07-01T21:32:44.132Z,30.60
2018-07-01T21:35:12.545Z,30.60
2018-07-01T21:37:40.913Z,30.50
2018-07-01T21:40:09.269Z,30.50
2018-07-01T21:42:37.661Z,30.50
2018-07-01T21:45:06.797Z,30.50
2018-07-01T21:47:35.245Z,30.50
2018-07-01T21:50:03.737Z,30.50
2018-07-01T21:52:32.119Z,30.50
2018-07-01T21:55:00.487Z,30.50
2018-07-01T21:57:28.970Z,30.50
2018-07-01T21:59:57.361Z,30.50
2018-07-01T22:02:25.728Z,30.50
2018-07-01T22:04:54.119Z,30.50
2018-07-01T22:07:22.636Z,30.50
2018-07-01T22:09:50.985Z,30.50
2018-07-01T22:12:30.843Z,30.60
2018-07-01T22:15:15.729Z,30.50
2018-07-01T22:17:44.102Z,30.50
2018-07-01T22:20:12.564Z,31.40
2018-07-01T22:22:40.958Z,30.60
2018-07-01T22:25:09.324Z,30.60
2018-07-01T22:27:37.729Z,30.50
2018-07-01T22:30:06.139Z,30.60
2018-07-01T22:32:34.557Z,30.50
2018-07-01T22:35:02.963Z,30.50
2018-07-01T22:37:31.422Z,30.50
2018-07-01T22:39:59.790Z,30.60
2018-07-01T22:42:28.201Z,30.50
2018-07-01T22:44:56.642Z,30.60
2018-07-01T22:47:25.030Z,30.60
2018-07-01T22:49:53.425Z,30.50
2018-07-01T22:52:21.789Z,30.50
2018-07-01T22:54:50.173Z,30.50
2018-07-01T22:57:18.613Z,30.50
2018-07-01T22:59:47.045Z,30.50
2018-07-01T23:02:54.633Z,30.50
2018-07-01T23:05:23.499Z,30.50
2018-07-01T23:07:52.382Z,30.50
2018-07-01T23:10:28.433Z,30.50
2018-07-01T23:12:57.579Z,30.50
2018-07-01T23:15:25.945Z,30.50
2018-07-01T23:17:54.725Z,30.50
2018-07-01T23:20:23.120Z,30.50
2018-07-01T23:22:51.559Z,30.50
2018-07-01T23:25:19.944Z,30.50
2018-07-01T23:27:48.467Z,30.50
2018-07-01T23:30:16.827Z,30.50
2018-07-01T23:32:45.608Z,30.50
2018-07-01T23:35:14.008Z,30.50
2018-07-01T23:37:42.490Z,30.50
2018-07-01T23:40:11.455Z,30.50
2018-07-01T23:42:40.530Z,30.50
2018-07-01T23:45:10.848Z,30.40
2018-07-01T23:47:39.366Z,30.40
2018-07-01T23:50:08.361Z,30.50
2018-07-01T23:52:36.967Z,30.50
2018-07-01T23:55:05.667Z,30.50
2018-07-01T23:57:34.201Z,31.00
